Jansen, Colorado
Current Conditions -  °F | °C
As of 7:54 PM on Tuesday 25 Nov 2014 (Local Time) from KTAD Reporting Station
Clear Clear  
Wind Chill: 37°   Ceiling: Unl
Heat Index: 42°   Visibility: 10mi
Dew Point: 22°   Wind: 9mph
Humidity: 45%   Direction: 290°WNW
Pressure: 30"   Gusts: NA
Location:  37.1661°N, 104.486°W
Report Text: KTAD 260254Z AUTO 29008KT 10SM CLR 06/M06 A3000 RMK AO2 SLP167 T00561056 51015
Loading
Personal Weather Stations






























Interactive Weather Map New forecast layout! Learn more

10-Day Weather Forecast

Advertisements
Track Severe Weather on mobile